Time;durP1;ratioP1;P1;durP2;ratioP2;P2;SDS_P1;SDS_P2;PMS_P1;PMS_P2;Temp;Humidity;BMP_temperature;BMP_pressure;BME280_temperature;BME280_humidity;BME280_pressure;Samples;Min_cycle;Max_cycle;Signal;HPM_P1;HPM_P2
2022/01/17 00:00:25;;;;;;;13.00;7.10;;;;;;;0.80;78.20;96763.23;107418;1272;44211;-73
2022/01/17 00:03:14;;;;;;;13.90;6.60;;;;;;;0.80;78.31;96761.91;107483;1271;40977;-73
2022/01/17 00:05:45;;;;;;;13.30;7.50;;;;;;;0.78;78.32;96757.43;107411;1271;43352;-74
2022/01/17 00:08:16;;;;;;;8.80;5.50;;;;;;;0.77;78.86;96752.58;107425;1270;35248;-73
2022/01/17 00:10:47;;;;;;;9.10;6.20;;;;;;;0.73;79.11;96743.75;107509;1270;37129;-73
2022/01/17 00:13:24;;;;;;;14.60;8.60;;;;;;;0.70;79.37;96734.16;107463;1270;32656;-73
2022/01/17 00:15:59;;;;;;;16.90;10.10;;;;;;;0.66;79.29;96735.16;107510;1270;33355;-73
2022/01/17 00:19:03;;;;;;;12.10;6.10;;;;;;;0.65;79.88;96728.39;107567;1270;35091;-74
2022/01/17 00:21:32;;;;;;;15.40;7.30;;;;;;;0.66;80.14;96732.44;107650;1270;36199;-73
2022/01/17 00:24:03;;;;;;;11.90;7.50;;;;;;;0.66;80.13;96732.27;107563;1270;32988;-73
2022/01/17 00:26:34;;;;;;;10.80;5.70;;;;;;;0.66;80.49;96718.91;107574;1271;32775;-73
2022/01/17 00:29:05;;;;;;;11.00;6.80;;;;;;;0.65;80.48;96713.21;107556;1271;36985;-73
2022/01/17 00:31:36;;;;;;;9.80;6.50;;;;;;;0.65;80.13;96707.16;107514;1270;35074;-75
2022/01/17 00:34:10;;;;;;;10.20;6.60;;;;;;;0.64;80.12;96703.47;107510;1270;43746;-74
2022/01/17 00:36:41;;;;;;;11.70;6.10;;;;;;;0.62;80.31;96696.74;107552;1270;33473;-74
2022/01/17 00:39:12;;;;;;;11.80;6.20;;;;;;;0.63;80.19;96695.98;107509;1271;36715;-74
2022/01/17 00:41:43;;;;;;;10.60;6.30;;;;;;;0.64;80.35;96697.05;107475;1270;34008;-73
2022/01/17 00:44:16;;;;;;;8.30;5.50;;;;;;;0.66;80.42;96709.99;107439;1270;38534;-74
2022/01/17 00:46:49;;;;;;;13.40;7.10;;;;;;;0.69;80.36;96696.20;107455;1272;34495;-74
2022/01/17 00:49:20;;;;;;;10.80;6.30;;;;;;;0.69;80.34;96708.37;107511;1272;31344;-74
2022/01/17 00:51:52;;;;;;;10.00;4.90;;;;;;;0.71;80.24;96710.90;107430;1272;43432;-74
2022/01/17 00:54:23;;;;;;;9.50;5.40;;;;;;;0.72;80.26;96715.74;107445;1272;29290;-74
2022/01/17 00:56:54;;;;;;;8.00;4.30;;;;;;;0.71;80.12;96711.83;107410;1272;32027;-74
2022/01/17 00:59:25;;;;;;;7.00;3.60;;;;;;;0.73;80.17;96707.11;107479;1271;31343;-74
2022/01/17 01:01:58;;;;;;;6.70;3.70;;;;;;;0.75;80.05;96701.27;107554;1269;35232;-74
2022/01/17 01:04:29;;;;;;;9.30;5.50;;;;;;;0.75;80.11;96700.13;107547;1270;33134;-74
2022/01/17 01:07:00;;;;;;;7.80;4.40;;;;;;;0.77;80.02;96705.41;107436;1271;44849;-74
2022/01/17 01:09:36;;;;;;;7.80;4.40;;;;;;;0.78;80.06;96698.46;107514;1271;38589;-74
2022/01/17 01:12:11;;;;;;;9.00;4.30;;;;;;;0.78;80.04;96701.75;107461;1271;34095;-74
2022/01/17 01:14:43;;;;;;;9.50;5.00;;;;;;;0.81;80.18;96705.37;107549;1271;34899;-74
2022/01/17 01:17:30;;;;;;;6.90;3.90;;;;;;;0.83;79.83;96705.20;107488;1271;36357;-74
2022/01/17 01:20:14;;;;;;;6.60;3.20;;;;;;;0.83;79.93;96703.34;107536;1268;39135;-74
2022/01/17 01:28:23;;;;;;;6.30;3.50;;;;;;;0.87;80.45;96685.70;107508;1271;32519;-74
2022/01/17 01:30:55;;;;;;;4.80;2.90;;;;;;;0.88;80.63;96679.79;107414;1271;41666;-74
2022/01/17 01:33:30;;;;;;;7.30;3.20;;;;;;;0.86;80.50;96682.23;107444;1270;35618;-74
2022/01/17 01:36:06;;;;;;;3.70;2.40;;;;;;;0.85;80.85;96680.83;107448;1271;36499;-75
2022/01/17 01:38:39;;;;;;;5.90;3.30;;;;;;;0.83;80.76;96678.08;107498;1272;35113;-74
2022/01/17 01:41:10;;;;;;;8.30;3.30;;;;;;;0.82;80.88;96671.96;107482;1271;45173;-74
2022/01/17 01:43:41;;;;;;;6.70;3.90;;;;;;;0.82;81.19;96665.77;107414;1271;38119;-74
2022/01/17 01:46:17;;;;;;;7.30;3.80;;;;;;;0.83;81.17;96664.92;107425;1272;37143;-74
2022/01/17 01:48:48;;;;;;;5.90;3.10;;;;;;;0.83;81.05;96660.70;107552;1270;31260;-74
2022/01/17 01:51:20;;;;;;;6.90;2.60;;;;;;;0.83;81.10;96652.25;107500;1271;32277;-74
2022/01/17 01:53:51;;;;;;;5.50;3.10;;;;;;;0.83;81.27;96650.95;107620;1270;33744;-74
2022/01/17 01:56:22;;;;;;;5.20;2.50;;;;;;;0.84;81.23;96649.77;107603;1270;38784;-74
2022/01/17 01:58:53;;;;;;;3.40;2.30;;;;;;;0.86;81.32;96651.95;107561;1270;38449;-74
2022/01/17 02:01:24;;;;;;;4.50;2.40;;;;;;;0.89;81.21;96655.61;107485;1271;41419;-74
2022/01/17 02:03:55;;;;;;;6.80;3.30;;;;;;;0.90;81.05;96646.41;107562;1270;41344;-74
2022/01/17 02:06:26;;;;;;;5.40;2.60;;;;;;;0.92;81.16;96633.77;107497;1271;39019;-74
2022/01/17 02:08:56;;;;;;;4.00;2.50;;;;;;;0.95;81.15;96626.19;107541;1271;33126;-74
2022/01/17 02:11:27;;;;;;;5.10;2.40;;;;;;;0.97;81.31;96612.15;107579;1271;30184;-74
2022/01/17 02:13:59;;;;;;;4.70;2.90;;;;;;;1.00;81.21;96624.67;107575;1271;40058;-74
2022/01/17 02:16:30;;;;;;;4.60;2.60;;;;;;;0.99;81.14;96621.35;107426;1271;49695;-74
2022/01/17 02:19:01;;;;;;;3.70;2.60;;;;;;;0.99;81.18;96616.16;107533;1270;39674;-74
2022/01/17 02:21:33;;;;;;;2.90;1.60;;;;;;;1.01;81.67;96616.70;107620;1271;34884;-74
2022/01/17 02:24:05;;;;;;;2.80;2.30;;;;;;;1.01;81.34;96617.35;107595;1271;34542;-74
2022/01/17 02:26:35;;;;;;;2.20;1.80;;;;;;;0.99;81.47;96615.04;107566;1271;39227;-74
2022/01/17 02:29:07;;;;;;;3.60;2.00;;;;;;;0.99;81.30;96602.31;107551;1271;33492;-74
2022/01/17 02:31:38;;;;;;;3.80;1.70;;;;;;;1.01;81.74;96597.83;107607;1270;32541;-74
2022/01/17 02:34:09;;;;;;;4.20;2.40;;;;;;;1.03;81.56;96595.15;107454;1270;43107;-74
2022/01/17 02:36:40;;;;;;;3.00;2.10;;;;;;;1.03;81.39;96591.78;107458;1271;43096;-73
2022/01/17 02:39:11;;;;;;;2.90;2.00;;;;;;;1.02;81.39;96588.77;107485;1271;36742;-74
2022/01/17 02:41:43;;;;;;;3.90;2.10;;;;;;;1.04;81.28;96581.40;107468;1271;39151;-74
2022/01/17 02:44:14;;;;;;;4.50;2.50;;;;;;;1.04;81.42;96586.95;107463;1271;36224;-74
2022/01/17 02:46:45;;;;;;;3.90;2.60;;;;;;;1.06;81.26;96576.03;107452;1272;33823;-74
2022/01/17 02:49:15;;;;;;;3.40;2.20;;;;;;;1.10;81.29;96573.93;107532;1271;43101;-74
2022/01/17 02:51:48;;;;;;;3.60;2.10;;;;;;;1.13;80.96;96571.14;107517;1270;33411;-74
2022/01/17 02:54:19;;;;;;;5.90;2.70;;;;;;;1.17;81.14;96565.02;107549;1270;35634;-74
2022/01/17 02:56:50;;;;;;;2.50;1.90;;;;;;;1.18;80.99;96568.02;107587;1270;39735;-74
2022/01/17 02:59:21;;;;;;;3.10;2.40;;;;;;;1.19;80.82;96557.49;107575;1270;37176;-74
2022/01/17 03:01:51;;;;;;;2.70;1.90;;;;;;;1.21;80.49;96549.35;107520;1270;39188;-74
2022/01/17 03:04:23;;;;;;;2.60;1.80;;;;;;;1.22;80.45;96548.61;107475;1271;30607;-74
2022/01/17 03:06:55;;;;;;;3.10;2.10;;;;;;;1.21;80.42;96543.33;107499;1271;32071;-74
2022/01/17 03:09:29;;;;;;;3.60;1.70;;;;;;;1.21;80.43;96535.45;107534;1270;34709;-74
2022/01/17 03:12:00;;;;;;;3.30;2.20;;;;;;;1.23;80.36;96533.09;107472;1271;36460;-75
2022/01/17 03:14:32;;;;;;;3.00;1.90;;;;;;;1.25;80.16;96532.61;107469;1271;36418;-74
2022/01/17 03:17:05;;;;;;;4.50;2.30;;;;;;;1.28;80.09;96534.55;107629;1272;32778;-74
2022/01/17 03:19:35;;;;;;;4.00;2.30;;;;;;;1.31;80.00;96529.52;107489;1271;41368;-74
2022/01/17 03:22:06;;;;;;;6.00;2.00;;;;;;;1.34;79.69;96532.23;107472;1271;32660;-74
2022/01/17 03:24:37;;;;;;;3.40;2.00;;;;;;;1.34;79.56;96528.65;107448;1272;47528;-74
2022/01/17 03:27:08;;;;;;;2.90;1.80;;;;;;;1.35;79.58;96520.73;107501;1272;35542;-75
2022/01/17 03:29:41;;;;;;;2.20;1.50;;;;;;;1.36;79.33;96522.15;107572;1270;34183;-74
2022/01/17 03:32:12;;;;;;;2.80;1.80;;;;;;;1.37;79.36;96513.71;107545;1270;36816;-74
2022/01/17 03:34:43;;;;;;;3.10;2.20;;;;;;;1.39;79.16;96521.91;107557;1270;40752;-74
2022/01/17 03:37:13;;;;;;;4.10;1.90;;;;;;;1.43;78.91;96522.02;107448;1272;34495;-74
2022/01/17 03:39:44;;;;;;;3.20;1.70;;;;;;;1.46;78.59;96524.10;107560;1267;33310;-74
2022/01/17 03:42:15;;;;;;;3.50;1.90;;;;;;;1.51;78.34;96530.84;107663;1270;39035;-74
2022/01/17 03:44:46;;;;;;;2.70;1.50;;;;;;;1.55;78.14;96527.05;107543;1271;35737;-73
2022/01/17 03:47:17;;;;;;;3.00;2.00;;;;;;;1.56;77.72;96516.42;107520;1270;33561;-74
2022/01/17 03:49:48;;;;;;;5.00;1.70;;;;;;;1.57;77.63;96510.95;107564;1271;36676;-74
2022/01/17 03:52:19;;;;;;;2.40;1.40;;;;;;;1.58;77.50;96516.77;107448;1271;41901;-74
2022/01/17 03:54:51;;;;;;;2.00;1.20;;;;;;;1.60;77.25;96496.14;107565;1269;38973;-74
2022/01/17 03:57:22;;;;;;;1.90;1.60;;;;;;;1.61;77.22;96505.61;107555;1270;37079;-74
2022/01/17 03:59:53;;;;;;;2.00;1.50;;;;;;;1.61;77.35;96502.00;107558;1270;35199;-74
2022/01/17 04:02:26;;;;;;;2.10;1.60;;;;;;;1.60;76.86;96496.98;107477;1272;36403;-74
2022/01/17 04:04:57;;;;;;;2.50;1.80;;;;;;;1.62;76.86;96489.95;107562;1271;30592;-74
2022/01/17 04:07:28;;;;;;;4.10;2.00;;;;;;;1.62;76.85;96492.89;107521;1272;42734;-74
2022/01/17 04:09:59;;;;;;;2.80;1.60;;;;;;;1.62;76.98;96480.60;107481;1271;33776;-74
2022/01/17 04:12:29;;;;;;;3.00;1.60;;;;;;;1.62;76.76;96470.10;107673;1270;33150;-74
2022/01/17 04:15:00;;;;;;;1.80;1.30;;;;;;;1.63;76.64;96471.69;107519;1270;33708;-74
2022/01/17 04:17:31;;;;;;;1.60;1.40;;;;;;;1.64;76.66;96460.62;107616;1270;35675;-74
2022/01/17 04:20:07;;;;;;;2.80;1.30;;;;;;;1.64;76.64;96466.73;107623;1270;40036;-73
2022/01/17 04:22:42;;;;;;;1.60;1.20;;;;;;;1.62;76.91;96461.01;107667;1270;35589;-74
2022/01/17 04:25:13;;;;;;;3.90;2.00;;;;;;;1.60;76.91;96451.35;107586;1270;43246;-74
2022/01/17 04:27:44;;;;;;;1.80;1.20;;;;;;;1.58;77.23;96455.86;107607;1270;36383;-74
2022/01/17 04:30:16;;;;;;;3.30;2.20;;;;;;;1.57;77.53;96446.98;107634;1270;49571;-74
2022/01/17 04:32:48;;;;;;;4.90;1.40;;;;;;;1.56;77.64;96460.20;107569;1270;36046;-74
2022/01/17 04:35:21;;;;;;;3.90;2.00;;;;;;;1.53;77.79;96443.83;107496;1272;39256;-74
2022/01/17 04:37:55;;;;;;;2.40;1.60;;;;;;;1.49;78.20;96464.83;107521;1272;39836;-74
2022/01/17 04:40:33;;;;;;;2.90;1.80;;;;;;;1.48;78.19;96458.90;107468;1271;39969;-74
2022/01/17 04:43:06;;;;;;;3.30;2.20;;;;;;;1.47;78.55;96454.69;107615;1271;34117;-74
2022/01/17 04:45:38;;;;;;;2.20;2.00;;;;;;;1.46;78.58;96464.59;107501;1271;31984;-74
2022/01/17 04:48:09;;;;;;;4.70;2.30;;;;;;;1.44;78.68;96461.52;107485;1271;32813;-75
2022/01/17 04:50:40;;;;;;;4.10;2.00;;;;;;;1.42;78.75;96457.14;107486;1271;42207;-74
2022/01/17 04:53:16;;;;;;;2.50;1.90;;;;;;;1.39;78.82;96460.38;107396;1272;37795;-74
2022/01/17 04:55:47;;;;;;;3.80;1.80;;;;;;;1.38;78.90;96462.81;107461;1271;36607;-74
2022/01/17 04:58:19;;;;;;;3.70;2.10;;;;;;;1.39;78.99;96455.36;107599;1270;35541;-74
2022/01/17 05:00:50;;;;;;;4.70;2.10;;;;;;;1.39;79.29;96451.75;107512;1270;41285;-74
2022/01/17 05:03:24;;;;;;;6.00;1.80;;;;;;;1.37;79.43;96458.58;107462;1270;36674;-74
2022/01/17 05:05:55;;;;;;;2.00;1.60;;;;;;;1.35;79.68;96454.59;107497;1271;39881;-74
2022/01/17 05:08:26;;;;;;;5.30;2.80;;;;;;;1.32;80.04;96462.11;107385;1272;43079;-74
2022/01/17 05:10:59;;;;;;;5.20;2.10;;;;;;;1.33;80.10;96484.31;107419;1271;37893;-74
2022/01/17 05:13:33;;;;;;;3.80;2.60;;;;;;;1.34;80.36;96480.69;107424;1272;41137;-74
2022/01/17 05:16:09;;;;;;;3.50;2.20;;;;;;;1.35;80.55;96479.30;107549;1270;34528;-73
2022/01/17 05:21:31;;;;;;;2.50;1.90;;;;;;;1.40;80.84;96478.63;107646;1270;42642;-73
2022/01/17 05:24:02;;;;;;;5.50;2.40;;;;;;;1.40;80.82;96470.66;107630;1270;43911;-74
2022/01/17 05:26:33;;;;;;;5.90;3.40;;;;;;;1.39;81.14;96465.34;107684;1267;31148;-73
2022/01/17 05:29:04;;;;;;;5.00;2.80;;;;;;;1.38;81.21;96452.52;107717;1270;32586;-74
2022/01/17 05:31:34;;;;;;;4.10;2.20;;;;;;;1.39;81.15;96443.30;107492;1271;36068;-74
2022/01/17 05:34:05;;;;;;;4.30;2.40;;;;;;;1.39;81.38;96434.23;107659;1270;37994;-74
2022/01/17 05:36:36;;;;;;;5.10;2.60;;;;;;;1.39;81.64;96434.21;107537;1273;41369;-73
2022/01/17 05:39:07;;;;;;;4.20;2.80;;;;;;;1.39;81.55;96428.08;107477;1272;40984;-75
2022/01/17 05:41:38;;;;;;;3.90;2.30;;;;;;;1.39;81.66;96417.08;107604;1270;34615;-74
2022/01/17 05:44:09;;;;;;;5.20;3.10;;;;;;;1.40;81.91;96419.47;107595;1270;37135;-75
2022/01/17 05:46:40;;;;;;;5.50;2.50;;;;;;;1.41;81.85;96427.50;107596;1270;33407;-74
2022/01/17 05:49:11;;;;;;;3.80;2.50;;;;;;;1.44;81.95;96407.65;107618;1270;35424;-73
2022/01/17 05:51:42;;;;;;;4.80;2.80;;;;;;;1.52;82.02;96410.33;107641;1270;33207;-74
2022/01/17 05:54:13;;;;;;;6.00;2.90;;;;;;;1.59;81.93;96405.12;107569;1271;36704;-74
2022/01/17 05:56:44;;;;;;;7.60;3.40;;;;;;;1.60;81.76;96409.03;107462;1271;37457;-74
2022/01/17 05:59:15;;;;;;;5.60;3.30;;;;;;;1.63;81.66;96388.52;107430;1271;35852;-74
2022/01/17 06:01:46;;;;;;;3.80;2.70;;;;;;;1.66;81.38;96391.55;107523;1270;34569;-74
2022/01/17 06:04:17;;;;;;;5.20;2.90;;;;;;;1.67;81.11;96379.27;107479;1272;34655;-74
2022/01/17 06:06:47;;;;;;;4.50;3.00;;;;;;;1.66;81.10;96377.33;107528;1271;33624;-74
2022/01/17 06:09:19;;;;;;;7.10;2.80;;;;;;;1.65;80.97;96370.04;107532;1271;35026;-74
2022/01/17 06:11:50;;;;;;;5.60;2.50;;;;;;;1.62;81.12;96380.73;107487;1272;35278;-74
2022/01/17 06:14:21;;;;;;;5.30;3.90;;;;;;;1.63;81.05;96370.99;107598;1269;34776;-74
2022/01/17 06:16:52;;;;;;;5.50;3.30;;;;;;;1.66;81.05;96366.03;107526;1271;45378;-74
2022/01/17 06:19:23;;;;;;;5.80;3.10;;;;;;;1.68;80.86;96366.64;107589;1271;39579;-74
2022/01/17 06:21:53;;;;;;;4.50;2.40;;;;;;;1.68;80.55;96368.86;107579;1271;31583;-74
2022/01/17 06:24:24;;;;;;;4.40;2.90;;;;;;;1.72;80.64;96368.44;107533;1270;30743;-74
2022/01/17 06:26:59;;;;;;;6.30;3.60;;;;;;;1.73;80.43;96369.03;107526;1270;47763;-74
2022/01/17 06:29:30;;;;;;;5.10;2.80;;;;;;;1.77;80.44;96367.13;107572;1271;34834;-74
2022/01/17 06:32:01;;;;;;;5.40;2.40;;;;;;;1.81;80.12;96353.35;107727;1270;30963;-73
2022/01/17 06:34:32;;;;;;;5.80;3.30;;;;;;;1.88;79.99;96356.55;107525;1270;30697;-74
2022/01/17 06:37:03;;;;;;;5.00;2.80;;;;;;;1.94;79.38;96343.54;107599;1271;36237;-74
2022/01/17 06:39:34;;;;;;;7.80;3.80;;;;;;;1.97;79.38;96339.27;107488;1271;41126;-74
2022/01/17 06:42:06;;;;;;;5.60;3.60;;;;;;;1.99;78.93;96354.16;107603;1271;29877;-73
2022/01/17 06:44:37;;;;;;;6.40;3.40;;;;;;;2.01;78.73;96334.38;107443;1271;38587;-75
2022/01/17 06:47:09;;;;;;;5.70;3.50;;;;;;;2.04;78.46;96328.18;107583;1271;34991;-74
2022/01/17 06:49:39;;;;;;;5.20;2.90;;;;;;;2.07;78.12;96320.17;107429;1270;40611;-74
2022/01/17 06:52:11;;;;;;;6.30;3.40;;;;;;;2.10;77.72;96327.87;107489;1271;37049;-74
2022/01/17 06:54:42;;;;;;;4.00;2.50;;;;;;;2.12;77.42;96329.94;107484;1271;37574;-74
2022/01/17 06:57:13;;;;;;;7.30;4.10;;;;;;;2.13;77.21;96320.52;107530;1271;36668;-74
2022/01/17 06:59:43;;;;;;;4.00;2.70;;;;;;;2.17;76.93;96303.11;107474;1271;32622;-73
2022/01/17 07:02:14;;;;;;;5.90;3.40;;;;;;;2.19;76.66;96315.81;107562;1270;39213;-74
2022/01/17 07:04:45;;;;;;;6.30;3.80;;;;;;;2.19;76.77;96296.04;107580;1271;38712;-73
2022/01/17 07:07:17;;;;;;;5.30;3.30;;;;;;;2.24;76.17;96282.73;107552;1271;33819;-74
2022/01/17 07:09:48;;;;;;;4.90;3.70;;;;;;;2.26;76.08;96281.39;107543;1270;30591;-73
2022/01/17 07:12:19;;;;;;;5.00;3.30;;;;;;;2.27;75.90;96252.16;107422;1272;36257;-73
2022/01/17 07:14:50;;;;;;;3.40;2.20;;;;;;;2.26;75.91;96263.11;107348;1274;45324;-73
2022/01/17 07:17:20;;;;;;;5.90;3.40;;;;;;;2.21;76.12;96272.73;107562;1271;34213;-74
2022/01/17 07:19:51;;;;;;;5.90;3.50;;;;;;;2.19;76.11;96284.33;107446;1272;30089;-73
2022/01/17 07:22:22;;;;;;;5.90;3.70;;;;;;;2.22;76.21;96282.85;107447;1271;38154;-74
2022/01/17 07:24:54;;;;;;;4.30;2.70;;;;;;;2.26;75.95;96306.27;107527;1271;46836;-74
2022/01/17 07:27:25;;;;;;;5.50;2.90;;;;;;;2.29;76.11;96323.48;107496;1271;38074;-74
2022/01/17 07:29:56;;;;;;;4.40;2.20;;;;;;;2.26;76.26;96334.89;107617;1270;30825;-73
2022/01/17 07:32:27;;;;;;;4.60;3.00;;;;;;;2.24;76.46;96348.38;107549;1271;42544;-73
2022/01/17 07:34:58;;;;;;;4.50;2.90;;;;;;;2.25;76.64;96347.81;107559;1271;32544;-74
2022/01/17 07:37:29;;;;;;;4.70;2.70;;;;;;;2.24;76.68;96313.88;107515;1270;32557;-74
2022/01/17 07:40:00;;;;;;;5.40;3.30;;;;;;;2.24;76.56;96308.84;107413;1271;42447;-73
2022/01/17 07:42:31;;;;;;;5.10;3.40;;;;;;;2.20;76.97;96274.36;107434;1271;37604;-73
2022/01/17 07:45:10;;;;;;;4.40;2.80;;;;;;;2.13;77.60;96263.25;107571;1270;41723;-73
2022/01/17 07:47:45;;;;;;;4.60;2.70;;;;;;;2.07;77.92;96255.23;107511;1270;35312;-74
2022/01/17 07:50:19;;;;;;;3.30;2.30;;;;;;;2.02;78.61;96249.03;107625;1270;39129;-74
2022/01/17 07:52:51;;;;;;;3.80;2.50;;;;;;;1.97;78.68;96244.00;107626;1270;37347;-73
2022/01/17 07:55:22;;;;;;;4.90;2.80;;;;;;;1.87;79.55;96221.03;107421;1272;39505;-73
2022/01/17 07:57:54;;;;;;;5.60;3.10;;;;;;;1.78;80.59;96202.20;107582;1271;36696;-74
2022/01/17 08:00:25;;;;;;;6.50;3.50;;;;;;;1.69;81.57;96213.83;107636;1270;33759;-74
2022/01/17 08:02:58;;;;;;;5.10;3.20;;;;;;;1.59;82.45;96174.49;107595;1271;33598;-74
2022/01/17 08:05:29;;;;;;;4.70;3.00;;;;;;;1.48;83.17;96184.58;107420;1271;38507;-74
2022/01/17 08:08:00;;;;;;;6.70;3.30;;;;;;;1.40;84.03;96176.05;107364;1271;39062;-75
2022/01/17 08:10:32;;;;;;;8.90;3.50;;;;;;;1.33;84.70;96166.92;107488;1271;38184;-74
2022/01/17 08:13:03;;;;;;;5.70;3.00;;;;;;;1.25;85.00;96174.94;107586;1271;36703;-74
2022/01/17 08:15:34;;;;;;;3.20;2.80;;;;;;;1.21;85.77;96159.15;107569;1271;39214;-74
2022/01/17 08:18:06;;;;;;;5.60;3.80;;;;;;;1.17;86.12;96159.23;107561;1271;27843;-74
2022/01/17 08:20:37;;;;;;;4.90;2.70;;;;;;;1.16;86.70;96152.18;107449;1271;41244;-75
2022/01/17 08:23:09;;;;;;;4.80;3.00;;;;;;;1.17;87.11;96155.69;107403;1272;39984;-74
2022/01/17 08:25:40;;;;;;;5.60;3.20;;;;;;;1.20;87.36;96142.27;107397;1271;43380;-74
2022/01/17 08:28:13;;;;;;;8.90;4.90;;;;;;;1.22;87.58;96140.69;107429;1272;38271;-75
2022/01/17 08:30:45;;;;;;;3.90;2.90;;;;;;;1.27;87.75;96148.02;107440;1271;68177;-74
2022/01/17 08:33:16;;;;;;;6.00;3.80;;;;;;;1.25;87.68;96159.02;107467;1271;44868;-73
2022/01/17 08:35:47;;;;;;;5.70;3.70;;;;;;;1.25;87.91;96153.27;107614;1270;41140;-74
2022/01/17 08:38:18;;;;;;;5.80;3.70;;;;;;;1.27;88.04;96144.35;107610;1270;43263;-74
2022/01/17 08:40:49;;;;;;;5.20;4.00;;;;;;;1.29;88.15;96115.83;107612;1271;38171;-74
2022/01/17 08:43:20;;;;;;;6.00;3.30;;;;;;;1.32;88.01;96110.23;107593;1271;30476;-74
2022/01/17 08:45:51;;;;;;;5.60;3.30;;;;;;;1.36;87.97;96110.25;107635;1271;33491;-74
2022/01/17 08:48:22;;;;;;;6.50;3.40;;;;;;;1.41;88.05;96108.34;107609;1271;35911;-74
2022/01/17 08:50:53;;;;;;;6.00;3.60;;;;;;;1.52;87.94;96106.95;107456;1271;37831;-74
2022/01/17 08:53:26;;;;;;;5.40;3.10;;;;;;;1.61;87.53;96067.52;107422;1271;35570;-73
2022/01/17 08:55:57;;;;;;;5.90;3.30;;;;;;;1.68;87.08;96062.98;107554;1271;41656;-74
2022/01/17 08:58:28;;;;;;;7.80;3.90;;;;;;;1.72;86.79;96064.17;107617;1270;42209;-73
2022/01/17 09:01:00;;;;;;;4.00;3.20;;;;;;;1.76;86.54;96058.64;107537;1271;38140;-73
2022/01/17 09:03:31;;;;;;;6.90;3.20;;;;;;;1.81;86.30;96059.20;107470;1270;37037;-73
2022/01/17 09:06:02;;;;;;;4.20;2.90;;;;;;;1.83;85.64;96037.38;107615;1270;36517;-73
2022/01/17 09:08:33;;;;;;;5.10;3.20;;;;;;;1.82;85.56;96033.12;107516;1270;37520;-73
2022/01/17 09:11:04;;;;;;;4.90;3.50;;;;;;;1.84;85.44;96039.49;107640;1270;41475;-73
2022/01/17 09:13:35;;;;;;;5.20;2.80;;;;;;;1.86;85.12;96030.27;107716;1271;30909;-73
2022/01/17 09:16:08;;;;;;;6.10;2.80;;;;;;;1.89;85.08;96039.62;107616;1271;39154;-73
2022/01/17 09:18:40;;;;;;;6.30;3.40;;;;;;;1.90;84.83;96036.23;107642;1271;32758;-73
2022/01/17 09:21:11;;;;;;;4.60;3.00;;;;;;;1.91;84.61;96016.55;107575;1271;43493;-73
2022/01/17 09:23:42;;;;;;;4.70;2.90;;;;;;;1.95;84.35;95990.48;107636;1271;31155;-74
2022/01/17 09:26:14;;;;;;;6.80;4.50;;;;;;;2.01;84.20;96012.79;107587;1271;44613;-74
2022/01/17 09:28:45;;;;;;;4.00;2.10;;;;;;;2.09;83.40;95994.91;107515;1272;32582;-73
2022/01/17 09:31:17;;;;;;;3.50;2.10;;;;;;;2.15;83.18;95996.52;107664;1271;31863;-74
2022/01/17 09:33:48;;;;;;;5.60;3.10;;;;;;;2.19;82.87;95991.45;107587;1271;32133;-73
2022/01/17 09:36:20;;;;;;;5.50;2.90;;;;;;;2.20;82.44;95997.38;107441;1271;38022;-74
2022/01/17 09:38:54;;;;;;;2.70;2.10;;;;;;;2.22;82.44;95993.73;107521;1271;41986;-73
2022/01/17 09:41:25;;;;;;;6.50;2.80;;;;;;;2.25;82.47;95983.21;107590;1271;34833;-74
2022/01/17 09:43:57;;;;;;;6.00;3.50;;;;;;;2.24;82.20;95973.69;107521;1271;34010;-73
2022/01/17 09:46:34;;;;;;;5.80;3.00;;;;;;;2.24;81.88;95969.88;107508;1271;38555;-74
2022/01/17 09:49:20;;;;;;;7.30;3.20;;;;;;;2.22;81.83;95967.02;107596;1271;33041;-74
2022/01/17 09:52:13;;;;;;;4.10;2.70;;;;;;;2.18;82.29;95957.92;107568;1271;38539;-73
2022/01/17 09:54:50;;;;;;;4.90;2.90;;;;;;;2.15;82.64;95951.14;107514;1271;32035;-73
2022/01/17 09:57:25;;;;;;;5.50;2.70;;;;;;;2.14;82.82;95935.69;107427;1271;28999;-73
2022/01/17 10:00:00;;;;;;;6.70;3.30;;;;;;;2.09;83.36;95954.80;107500;1271;42608;-73
2022/01/17 10:02:31;;;;;;;5.60;2.90;;;;;;;2.05;83.82;95940.48;107515;1271;35126;-73
2022/01/17 10:05:06;;;;;;;5.60;2.70;;;;;;;2.03;84.01;95953.41;107521;1271;42446;-73
2022/01/17 10:07:54;;;;;;;4.10;2.60;;;;;;;2.00;84.56;95939.42;107398;1271;40162;-73
2022/01/17 10:10:40;;;;;;;3.90;2.60;;;;;;;1.99;84.89;95943.39;107414;1271;34834;-74
2022/01/17 10:13:13;;;;;;;6.00;2.60;;;;;;;1.96;85.10;95930.69;107525;1271;40366;-74
2022/01/17 10:16:00;;;;;;;3.60;2.50;;;;;;;1.94;85.45;95928.08;107628;1271;39757;-73
2022/01/17 10:18:34;;;;;;;5.10;3.20;;;;;;;1.91;85.69;95927.33;107419;1271;79356;-74
2022/01/17 10:21:10;;;;;;;7.70;4.20;;;;;;;1.89;86.04;95919.02;107621;1272;33500;-73
2022/01/17 10:35:23;;;;;;;4.40;2.80;;;;;;;1.82;88.26;95858.33;106711;1283;39227;-74
2022/01/17 10:38:05;;;;;;;5.70;2.80;;;;;;;1.87;88.22;95844.63;106722;1283;34509;-74
2022/01/17 10:40:40;;;;;;;3.80;2.40;;;;;;;1.91;88.43;95858.16;106792;1283;35952;-74
2022/01/17 10:43:25;;;;;;;4.20;2.80;;;;;;;1.93;88.25;95844.64;106763;1281;187748;-75
2022/01/17 10:45:57;;;;;;;5.40;3.20;;;;;;;1.92;88.44;95845.16;106945;1281;33328;-74
2022/01/17 10:48:36;;;;;;;3.80;2.40;;;;;;;1.93;88.48;95841.71;106911;1281;40106;-74
2022/01/17 10:51:10;;;;;;;3.30;2.40;;;;;;;1.95;88.22;95828.05;106970;1281;34923;-75
2022/01/17 10:53:42;;;;;;;6.80;2.40;;;;;;;1.97;88.34;95829.39;106900;1281;41631;-74
2022/01/17 10:56:16;;;;;;;3.00;1.80;;;;;;;2.00;88.39;95834.30;106906;1280;40552;-74
2022/01/17 10:58:48;;;;;;;5.10;2.80;;;;;;;2.05;88.26;95836.91;106961;1281;36743;-73
2022/01/17 11:01:21;;;;;;;4.40;2.80;;;;;;;2.11;88.19;95824.89;106992;1281;38450;-74
2022/01/17 11:04:01;;;;;;;6.70;3.60;;;;;;;2.13;88.05;95825.45;106961;1280;35871;-74
2022/01/17 11:06:32;;;;;;;6.20;3.20;;;;;;;2.14;87.89;95816.36;106727;1282;39858;-73
2022/01/17 11:09:09;;;;;;;4.10;2.70;;;;;;;2.16;87.93;95839.97;106899;1281;42405;-74
2022/01/17 11:11:42;;;;;;;4.70;2.50;;;;;;;2.16;87.82;95783.17;106978;1281;30638;-74
2022/01/17 11:14:15;;;;;;;5.00;2.90;;;;;;;2.14;87.89;95816.16;106945;1281;35853;-74
2022/01/17 11:16:46;;;;;;;4.20;1.70;;;;;;;2.14;88.03;95823.16;107309;1274;31341;-74
2022/01/17 11:22:06;;;;;;;4.50;2.60;;;;;;;2.13;88.17;95821.42;107439;1273;42322;-75
2022/01/17 11:24:39;;;;;;;3.20;1.80;;;;;;;2.13;88.43;95819.44;107443;1273;48930;-74
2022/01/17 11:27:10;;;;;;;3.70;2.40;;;;;;;2.12;88.51;95809.31;107346;1273;40177;-75
2022/01/17 11:29:41;;;;;;;4.20;1.50;;;;;;;2.10;88.62;95795.39;107396;1273;37795;-74
2022/01/17 11:32:12;;;;;;;4.00;2.20;;;;;;;2.06;88.74;95810.77;107384;1273;39362;-75
2022/01/17 11:34:44;;;;;;;4.50;2.40;;;;;;;2.03;88.91;95805.25;107322;1273;41365;-75
2022/01/17 11:37:15;;;;;;;2.50;2.10;;;;;;;1.96;89.29;95772.13;107319;1273;41142;-74
2022/01/17 11:39:54;;;;;;;4.20;2.30;;;;;;;1.89;89.55;95770.11;107296;1274;41390;-75
2022/01/17 11:42:38;;;;;;;4.90;2.70;;;;;;;1.86;89.90;95762.70;107404;1273;32228;-75
2022/01/17 11:45:39;;;;;;;3.50;2.20;;;;;;;1.83;90.29;95779.75;107449;1273;39411;-75
2022/01/17 11:48:19;;;;;;;1.80;1.50;;;;;;;1.75;90.50;95784.37;107363;1273;48518;-75
2022/01/17 11:50:52;;;;;;;2.50;1.30;;;;;;;1.70;90.98;95797.79;107359;1273;33543;-75
2022/01/17 11:53:55;;;;;;;2.30;1.90;;;;;;;1.66;91.17;95792.96;107374;1273;43160;-74
2022/01/17 11:56:41;;;;;;;2.80;1.60;;;;;;;1.65;91.44;95793.69;107419;1273;45483;-74
2022/01/17 11:59:38;;;;;;;3.00;1.80;;;;;;;1.70;91.68;95776.31;107312;1274;42145;-75
2022/01/17 12:02:36;;;;;;;1.50;1.30;;;;;;;1.73;91.58;95776.98;107335;1273;35210;-75
2022/01/17 12:05:44;;;;;;;4.50;2.40;;;;;;;1.73;91.77;95797.45;107329;1273;42930;-75
2022/01/17 12:08:20;;;;;;;3.00;1.80;;;;;;;1.78;91.61;95812.35;107289;1273;43008;-75
2022/01/17 12:10:57;;;;;;;2.50;1.70;;;;;;;1.79;91.72;95791.67;107410;1273;39675;-74
2022/01/17 12:13:42;;;;;;;2.40;1.50;;;;;;;1.82;91.53;95797.45;107403;1273;35960;-74
2022/01/17 12:16:37;;;;;;;3.20;1.10;;;;;;;1.80;91.61;95788.08;107294;1273;37187;-75
2022/01/17 12:19:11;;;;;;;3.00;1.50;;;;;;;1.82;91.68;95780.84;107364;1273;37890;-75
2022/01/17 12:21:47;;;;;;;1.80;1.50;;;;;;;1.82;91.60;95780.84;107377;1273;33954;-74